EGLC/LCY METAR and TAF weather

Enter ICAO airport designator
Station Type Date Time Source
EGLC METAR 2018/01/21 12:20 UTC NOAA

EGLC 211220Z AUTO 11009KT 6000 -RASN BKN006/// OVC028/// //////TCU 02/01 Q1014


Station Type Date Time Source
EGLC Decoded METAR 2018/01/21 12:20 UTC NOAA

London City Airport, United Kingdom (EGLC) 51-30N 000-30W
Jan 21, 2018 - 07:20 AM EST / 2018.01.21 1220 UTC
Wind: from the ESE (110 degrees) at 10 MPH (9 KT):0
Visibility: 3 mile(s):0
Sky conditions: overcast
Weather: light rain, snow; Towering cumulus clouds observed
Temperature: 35 F (2 C)
Windchill: 26 F (-3 C):1
Dew Point: 33 F (1 C)
Relative Humidity: 93%
Pressure (altimeter): 29.94 in. Hg (1014 hPa)
ob: EGLC 211220Z AUTO 11009KT 6000 -RASN BKN006/// OVC028/// //////TCU 02/01 Q1014
cycle: 12

Station Type Date Time Source
EGLC TAF 2016/03/02 12:00 UTC NOAA

TAF EGLC 021104Z 0212/0221 25015G25KT 9999 SCT020
TEMPO 0212/0216 25025G38KT 5000 SHRA BKN012CB PROB30
TEMPO 0212/0215 2500 +SHGS +SHRASN
TEMPO 0216/0221 29025G35KT
TEMPO 0219/0221 BKN012


Example: see airport list